Time;durP1;ratioP1;P1;durP2;ratioP2;P2;SDS_P1;SDS_P2;PMS_P1;PMS_P2;Temp;Humidity;BMP_temperature;BMP_pressure;BME280_temperature;BME280_humidity;BME280_pressure;Samples;Min_cycle;Max_cycle;Signal;HPM_P1;HPM_P2
2022/01/03 05:04:28;;;;;;;27.73;18.92;;;;;;;8.58;73.05;100363.69;5606929;31;77438;-57
2022/01/03 05:07:31;;;;;;;25.45;18.75;;;;;;;8.58;73.05;100363.69;5583682;32;34160;-57
2022/01/03 05:10:33;;;;;;;22.20;18.12;;;;;;;7.97;84.70;100383.03;5583918;31;33241;-57
2022/01/03 05:13:36;;;;;;;24.35;18.45;;;;;;;8.34;80.94;100374.84;5583720;31;34319;-57
2022/01/03 05:16:38;;;;;;;24.52;18.05;;;;;;;8.24;88.08;100372.16;5583494;31;33541;-57
2022/01/03 05:19:40;;;;;;;25.40;18.33;;;;;;;8.34;74.58;100371.38;5583581;31;34050;-57
2022/01/03 05:22:44;;;;;;;23.83;17.98;;;;;;;8.21;74.18;100360.16;5583734;32;33678;-57
2022/01/03 05:25:47;;;;;;;27.02;18.55;;;;;;;8.42;78.44;100357.53;5583554;31;33134;-57
2022/01/03 05:28:49;;;;;;;22.00;16.40;;;;;;;8.43;74.88;100343.88;5583627;32;33600;-57
2022/01/03 05:31:52;;;;;;;21.83;16.70;;;;;;;8.52;79.99;100343.38;5583526;31;33446;-57
2022/01/03 05:34:54;;;;;;;23.02;16.85;;;;;;;8.59;89.20;100333.22;5583657;31;33462;-57
2022/01/03 05:37:57;;;;;;;22.52;16.67;;;;;;;8.84;74.79;100343.06;5575949;31;33196;-57
2022/01/03 05:40:59;;;;;;;20.88;15.63;;;;;;;9.06;79.50;100329.41;5563976;32;33851;-57
2022/01/03 05:44:01;;;;;;;21.73;16.23;;;;;;;8.78;79.48;100334.28;5563769;32;33248;-57
2022/01/03 05:47:03;;;;;;;21.62;16.70;;;;;;;8.77;73.92;100331.84;5563862;32;33587;-57
2022/01/03 05:50:07;;;;;;;23.08;16.73;;;;;;;8.89;76.65;100332.37;5563843;32;33357;-57
2022/01/03 05:53:09;;;;;;;20.33;16.45;;;;;;;8.84;79.66;100319.00;5567133;32;33426;-57
2022/01/03 05:56:12;;;;;;;20.95;17.45;;;;;;;8.92;85.15;100329.97;5582802;31;33495;-57
2022/01/03 05:59:15;;;;;;;25.20;16.95;;;;;;;8.99;80.26;100347.62;5582921;31;33412;-57
2022/01/03 06:02:18;;;;;;;20.70;16.90;;;;;;;9.01;73.62;100340.94;5582637;32;33332;-57
2022/01/03 06:08:46;;;;;;;19.77;15.00;;;;;;;8.97;81.54;100344.41;5572915;31;34188;-57
2022/01/03 06:11:52;;;;;;;17.27;13.57;;;;;;;8.93;74.07;100347.59;5583076;32;33633;-57
2022/01/03 06:14:55;;;;;;;17.30;12.65;;;;;;;9.01;74.42;100351.63;5573792;32;34298;-57
2022/01/03 06:17:58;;;;;;;19.87;12.27;;;;;;;9.28;75.01;100353.97;5569683;31;33528;-57
2022/01/03 06:21:00;;;;;;;19.70;12.48;;;;;;;9.42;72.45;100340.81;5568846;32;33596;-57
2022/01/03 06:24:04;;;;;;;20.50;12.48;;;;;;;9.55;71.96;100340.22;5568631;32;32451;-57
2022/01/03 06:27:07;;;;;;;14.00;11.25;;;;;;;9.70;71.32;100328.66;5566224;32;33284;-57
2022/01/03 06:30:12;;;;;;;17.45;11.25;;;;;;;9.89;76.27;100316.22;5568083;31;32138;-57
2022/01/03 06:33:14;;;;;;;15.55;11.00;;;;;;;10.04;72.29;100306.50;5569573;32;34351;-57
2022/01/03 06:36:18;;;;;;;14.77;10.93;;;;;;;10.06;76.32;100315.06;5569364;32;33090;-57
2022/01/03 06:39:27;;;;;;;14.38;11.75;;;;;;;10.40;81.25;100338.41;5569024;31;31856;-57
2022/01/03 06:42:29;;;;;;;14.60;11.45;;;;;;;10.30;70.85;100363.44;5569535;31;34345;-57
2022/01/03 06:45:33;;;;;;;15.60;11.57;;;;;;;10.13;69.49;100369.09;5569716;32;34421;-57
2022/01/03 06:48:36;;;;;;;12.37;9.55;;;;;;;10.14;69.63;100381.44;5569418;32;34272;-57
2022/01/03 06:51:39;;;;;;;18.20;9.77;;;;;;;10.13;69.11;100369.09;5568899;32;33698;-57
2022/01/03 06:54:41;;;;;;;10.70;7.47;;;;;;;10.32;68.85;100377.34;5568413;32;33568;-57
2022/01/03 06:57:47;;;;;;;9.27;4.50;;;;;;;10.63;66.71;100353.81;5569398;31;33476;-57
2022/01/03 07:00:50;;;;;;;5.95;3.12;;;;;;;11.22;65.01;100368.00;5568661;32;33678;-57
2022/01/03 07:03:53;;;;;;;8.63;2.35;;;;;;;11.85;60.39;100354.38;5568578;32;34222;-57
2022/01/03 07:06:55;;;;;;;4.65;2.30;;;;;;;12.38;58.14;100323.78;5568716;32;33125;-57
2022/01/03 07:09:57;;;;;;;3.30;1.60;;;;;;;12.91;55.35;100326.94;5569460;32;33674;-57
2022/01/03 07:13:01;;;;;;;4.62;2.05;;;;;;;13.20;53.69;100311.59;5567480;32;34322;-57
2022/01/03 07:19:24;;;;;;;5.12;2.03;;;;;;;13.49;52.81;100293.28;5569581;32;33585;-57
2022/01/03 07:22:27;;;;;;;4.32;1.80;;;;;;;13.73;50.78;100286.84;5569436;32;33558;-57
2022/01/03 07:25:29;;;;;;;5.65;1.50;;;;;;;13.85;50.13;100305.97;5568307;32;33593;-57
2022/01/03 07:28:34;;;;;;;4.10;1.50;;;;;;;13.86;49.85;100311.06;5568954;32;33628;-57
2022/01/03 07:31:37;;;;;;;13.02;1.80;;;;;;;13.94;50.04;100339.19;5569076;32;34280;-57
2022/01/03 07:34:40;;;;;;;4.75;1.50;;;;;;;13.97;50.12;100294.66;5566530;32;34249;-57
2022/01/03 07:37:42;;;;;;;4.47;1.65;;;;;;;14.08;48.84;100313.00;5566313;32;33337;-57
2022/01/03 07:40:45;;;;;;;3.50;1.12;;;;;;;14.07;49.11;100299.81;5569247;32;33637;-57
2022/01/03 07:43:48;;;;;;;4.12;1.20;;;;;;;14.25;47.28;100306.94;5569201;32;34367;-57
2022/01/03 07:46:50;;;;;;;3.35;1.70;;;;;;;14.39;46.78;100296.06;5569354;32;33687;-57
2022/01/03 07:49:53;;;;;;;4.22;1.17;;;;;;;14.36;46.98;100304.78;5568797;32;33612;-57
2022/01/03 07:52:59;;;;;;;4.57;1.60;;;;;;;14.33;47.29;100335.84;5569197;32;34468;-57
2022/01/03 07:56:04;;;;;;;5.50;1.33;;;;;;;14.33;48.28;100290.00;5567764;32;33734;-57
2022/01/03 07:59:07;;;;;;;4.53;1.62;;;;;;;14.29;47.34;100331.38;5568643;32;33916;-58
2022/01/03 08:02:09;;;;;;;2.83;1.45;;;;;;;14.25;46.94;100327.72;5568909;32;34266;-58
2022/01/03 08:05:14;;;;;;;3.75;1.45;;;;;;;14.23;48.25;100333.38;5569100;32;33567;-58
2022/01/03 08:08:16;;;;;;;4.22;1.65;;;;;;;14.20;48.14;100335.91;5569137;32;33681;-58
2022/01/03 08:11:18;;;;;;;6.78;1.55;;;;;;;14.15;48.28;100330.66;5567289;32;34288;-58
2022/01/03 08:14:21;;;;;;;3.70;1.17;;;;;;;14.17;48.84;100331.13;5568627;32;34229;-57
2022/01/03 08:17:24;;;;;;;2.45;1.40;;;;;;;14.20;46.91;100344.00;5565620;32;33240;-58
2022/01/03 08:20:27;;;;;;;5.82;1.55;;;;;;;14.29;46.92;100344.88;5558685;32;34231;-58
2022/01/03 08:23:31;;;;;;;4.53;1.35;;;;;;;14.28;47.67;100362.94;5566862;32;33672;-57
2022/01/03 08:26:37;;;;;;;1.42;1.10;;;;;;;14.27;47.03;100371.31;5559619;32;33599;-57
2022/01/03 08:29:40;;;;;;;4.18;1.65;;;;;;;14.26;47.76;100346.25;5568075;32;33584;-57
2022/01/03 08:32:43;;;;;;;3.03;1.40;;;;;;;14.24;47.65;100348.50;5568303;32;33594;-57
2022/01/03 08:35:45;;;;;;;5.40;1.42;;;;;;;14.21;47.34;100345.59;5568175;32;33589;-57
2022/01/03 08:38:48;;;;;;;4.30;1.73;;;;;;;14.22;47.34;100366.84;5567644;31;33599;-57
2022/01/03 08:41:50;;;;;;;2.45;1.35;;;;;;;14.22;48.84;100328.31;5567357;32;33605;-57
2022/01/03 08:44:52;;;;;;;3.97;1.70;;;;;;;14.28;47.94;100348.66;5568179;32;33635;-58
2022/01/03 08:47:54;;;;;;;3.00;1.40;;;;;;;14.18;47.87;100347.00;5568503;32;33852;-57
2022/01/03 08:50:57;;;;;;;3.40;1.52;;;;;;;14.17;48.03;100350.00;5567896;32;33732;-58
2022/01/03 08:54:07;;;;;;;5.18;1.70;;;;;;;14.17;48.41;100371.56;5560072;32;33660;-58
2022/01/03 08:57:09;;;;;;;3.87;1.60;;;;;;;14.15;49.08;100398.03;5547473;32;34254;-58
2022/01/03 09:00:12;;;;;;;4.12;2.37;;;;;;;14.06;48.74;100406.03;5556274;32;34323;-58
2022/01/03 09:03:15;;;;;;;5.30;1.30;;;;;;;14.08;49.75;100366.09;5567482;32;34349;-58
2022/01/03 09:06:19;;;;;;;2.87;1.37;;;;;;;13.99;49.14;100359.84;5558103;32;34314;-57
2022/01/03 09:09:21;;;;;;;2.95;1.30;;;;;;;13.98;49.11;100369.81;5563895;32;33216;-58
2022/01/03 09:12:23;;;;;;;3.42;1.35;;;;;;;13.94;49.18;100368.84;5550723;32;33655;-57
2022/01/03 09:15:26;;;;;;;2.70;1.30;;;;;;;13.85;48.57;100373.34;5563488;32;33585;-57
2022/01/03 09:18:28;;;;;;;2.35;0.85;;;;;;;13.82;48.63;100400.88;5567264;32;33787;-58
2022/01/03 09:21:30;;;;;;;3.55;1.23;;;;;;;13.80;47.54;100368.84;5567814;32;33627;-57
2022/01/03 09:24:54;;;;;;;3.42;1.15;;;;;;;13.77;48.71;100374.03;5567569;32;33908;-58
2022/01/03 09:31:21;;;;;;;1.95;1.10;;;;;;;13.78;55.77;100372.97;5560826;32;33703;-58
2022/01/03 09:34:23;;;;;;;8.40;1.15;;;;;;;13.71;48.25;100381.44;5560511;32;33784;-58
2022/01/03 09:37:26;;;;;;;4.03;1.02;;;;;;;13.72;49.26;100377.66;5549119;32;34320;-58
2022/01/03 09:40:28;;;;;;;3.42;1.10;;;;;;;13.66;48.32;100373.44;5566051;32;33670;-57
2022/01/03 09:43:41;;;;;;;3.08;1.20;;;;;;;13.55;49.22;100364.00;5560713;32;33577;-57
2022/01/03 09:46:43;;;;;;;3.25;1.15;;;;;;;13.51;49.84;100362.97;5555491;32;33581;-58
2022/01/03 09:49:47;;;;;;;2.60;1.50;;;;;;;13.53;49.31;100364.28;5561698;32;34328;-58
2022/01/03 09:52:51;;;;;;;2.72;1.25;;;;;;;13.43;50.31;100342.94;5558352;32;33635;-58
2022/01/03 09:55:54;;;;;;;2.17;1.35;;;;;;;13.44;49.80;100328.37;5564895;32;33579;-58
2022/01/03 09:58:56;;;;;;;5.22;1.40;;;;;;;13.37;49.67;100336.06;5551185;32;33689;-58
2022/01/03 10:02:00;;;;;;;2.53;1.20;;;;;;;13.35;50.15;100335.56;5559640;32;33684;-58
2022/01/03 10:05:04;;;;;;;2.15;1.20;;;;;;;13.39;50.62;100328.50;5558754;32;33849;-58
2022/01/03 10:08:06;;;;;;;2.53;1.10;;;;;;;13.44;50.43;100322.97;5568812;32;33787;-58
2022/01/03 10:11:10;;;;;;;4.40;1.37;;;;;;;13.40;50.31;100330.06;5555424;32;33759;-58
2022/01/03 10:14:13;;;;;;;3.42;1.30;;;;;;;13.31;50.94;100324.63;5570087;32;33650;-58
2022/01/03 10:17:16;;;;;;;1.60;0.95;;;;;;;13.35;50.37;100328.28;5566236;32;34047;-57
2022/01/03 10:20:19;;;;;;;2.00;1.10;;;;;;;13.28;51.11;100319.03;5559942;32;34306;-57
2022/01/03 10:23:22;;;;;;;3.00;1.12;;;;;;;13.24;50.64;100321.50;5558142;32;33328;-58
2022/01/03 10:26:24;;;;;;;15.63;2.47;;;;;;;13.15;51.98;100324.06;5554153;32;33346;-58
2022/01/03 10:29:28;;;;;;;7.00;1.48;;;;;;;13.18;51.54;100314.59;5568040;32;33834;-58
2022/01/03 10:32:31;;;;;;;2.45;1.10;;;;;;;13.13;51.41;100301.25;5561581;32;31890;-57
2022/01/03 10:35:46;;;;;;;4.97;1.58;;;;;;;13.08;51.87;100299.44;5559184;32;33640;-57
2022/01/03 10:38:50;;;;;;;4.72;1.25;;;;;;;13.08;51.98;100285.19;5549715;32;33637;-58
2022/01/03 10:42:10;;;;;;;7.72;1.65;;;;;;;13.11;52.03;100273.81;5555941;32;34355;-58
2022/01/03 10:45:14;;;;;;;3.53;1.35;;;;;;;13.09;51.91;100279.50;5556993;32;33595;-58
2022/01/03 10:48:34;;;;;;;3.28;1.20;;;;;;;13.10;52.47;100277.59;5551386;32;33351;-57
2022/01/03 10:51:36;;;;;;;5.68;1.15;;;;;;;13.12;52.27;100275.44;5568005;32;33787;-58
2022/01/03 10:54:40;;;;;;;1.75;1.10;;;;;;;13.04;52.39;100278.81;5566487;32;33663;-58
2022/01/03 10:57:56;;;;;;;3.37;1.37;;;;;;;13.08;52.84;100272.53;5565732;32;34532;-57
2022/01/03 11:01:00;;;;;;;3.75;1.30;;;;;;;13.17;52.96;100265.34;5566292;32;34359;-58
2022/01/03 11:04:03;;;;;;;3.47;1.15;;;;;;;13.23;52.30;100262.56;5560379;32;34431;-57
2022/01/03 11:10:45;;;;;;;3.58;1.50;;;;;;;13.40;51.61;100271.63;5558817;32;33391;-58
2022/01/03 11:13:48;;;;;;;4.95;1.60;;;;;;;13.42;51.70;100262.47;5553378;32;34349;-57
2022/01/03 11:16:51;;;;;;;7.45;1.80;;;;;;;13.41;53.25;100240.13;5560797;32;33731;-58
2022/01/03 11:19:59;;;;;;;2.70;1.40;;;;;;;13.46;52.47;100237.31;5549507;32;33612;-58
2022/01/03 11:23:01;;;;;;;2.22;1.30;;;;;;;13.44;52.09;100230.63;5567111;32;33711;-58
2022/01/03 11:26:07;;;;;;;3.22;1.40;;;;;;;13.53;52.82;100226.94;5559674;32;33646;-58
2022/01/03 11:29:10;;;;;;;3.75;1.33;;;;;;;13.40;52.28;100230.44;5564612;32;33639;-58
2022/01/03 11:32:13;;;;;;;3.95;1.20;;;;;;;13.44;52.06;100244.88;5567461;32;33608;-57
2022/01/03 11:35:16;;;;;;;2.92;1.08;;;;;;;13.52;50.14;100251.47;5567293;32;34428;-57
2022/01/03 11:38:20;;;;;;;3.08;1.33;;;;;;;13.58;50.52;100256.44;5562107;32;33387;-58
2022/01/03 11:41:23;;;;;;;2.90;1.23;;;;;;;13.70;50.80;100261.28;5557498;32;33325;-58
2022/01/03 11:47:38;;;;;;;3.05;1.37;;;;;;;13.60;52.19;100253.44;5562382;32;34267;-57
2022/01/03 11:50:42;;;;;;;6.35;1.70;;;;;;;13.70;52.62;100258.59;5568336;32;34372;-57
2022/01/03 11:53:48;;;;;;;2.42;1.23;;;;;;;13.64;51.25;100240.97;5561098;32;33685;-57
2022/01/03 11:57:12;;;;;;;4.43;1.27;;;;;;;13.62;50.73;100232.41;5561362;32;33613;-58
2022/01/03 12:03:45;;;;;;;5.85;1.27;;;;;;;13.62;49.89;100238.56;5567531;32;33577;-58
2022/01/03 12:06:47;;;;;;;4.18;1.20;;;;;;;13.63;48.83;100245.56;5558176;32;34310;-58
2022/01/03 12:09:52;;;;;;;7.07;1.20;;;;;;;13.46;49.06;100226.56;5556026;32;33767;-57
2022/01/03 12:12:59;;;;;;;6.32;1.17;;;;;;;13.50;48.87;100242.91;5561192;32;32263;-57
2022/01/03 12:16:04;;;;;;;3.70;0.93;;;;;;;13.45;49.44;100238.44;5554740;32;34430;-57
2022/01/03 12:19:10;;;;;;;2.35;0.95;;;;;;;13.48;48.49;100255.88;5555661;32;33959;-57
2022/01/03 12:22:18;;;;;;;2.65;0.95;;;;;;;13.39;48.66;100226.16;5558783;32;34265;-58
2022/01/03 12:25:30;;;;;;;2.78;1.00;;;;;;;13.32;49.20;100223.87;5562548;32;33582;-57
2022/01/03 12:29:05;;;;;;;1.75;1.02;;;;;;;13.23;49.27;100214.09;5564481;32;34930;-57
2022/01/03 12:32:08;;;;;;;5.12;1.40;;;;;;;13.22;50.29;100218.69;5558822;32;34247;-57
2022/01/03 12:35:17;;;;;;;3.15;1.05;;;;;;;13.19;50.29;100223.87;5550561;32;34406;-57
2022/01/03 12:38:23;;;;;;;2.80;1.33;;;;;;;13.09;50.30;100217.59;5550748;32;34307;-57
2022/01/03 12:41:44;;;;;;;3.33;1.17;;;;;;;13.08;50.77;100244.84;5565312;32;33647;-57
2022/01/03 12:44:50;;;;;;;6.78;1.20;;;;;;;13.04;51.07;100233.84;5568200;32;33521;-57
2022/01/03 12:47:52;;;;;;;3.22;1.37;;;;;;;13.03;51.47;100236.84;5562608;32;33611;-58
2022/01/03 12:51:01;;;;;;;3.72;1.40;;;;;;;13.02;51.28;100225.28;5548821;32;33675;-58
2022/01/03 12:54:07;;;;;;;7.00;1.50;;;;;;;13.03;51.57;100264.56;5566363;32;33594;-57
2022/01/03 12:57:15;;;;;;;2.92;1.20;;;;;;;12.99;51.52;100247.41;5568276;32;33775;-57
2022/01/03 13:00:51;;;;;;;2.70;1.25;;;;;;;12.99;52.52;100241.25;5567921;32;33415;-57
2022/01/03 13:03:56;;;;;;;6.05;1.67;;;;;;;13.04;52.27;100241.91;5523976;32;33620;-58
2022/01/03 13:07:03;;;;;;;3.10;1.48;;;;;;;13.02;53.86;100238.75;5561422;32;33711;-57
2022/01/03 13:10:05;;;;;;;3.00;1.35;;;;;;;13.06;52.26;100237.03;5551278;32;33753;-58
2022/01/03 13:13:23;;;;;;;3.05;1.30;;;;;;;13.13;52.41;100242.03;5552047;32;34355;-57
2022/01/03 13:16:30;;;;;;;3.85;1.50;;;;;;;13.03;52.73;100229.56;5556300;32;33346;-57
2022/01/03 13:19:36;;;;;;;;;;;;;;;13.05;53.08;100259.69;5567694;32;34319;-58
2022/01/03 13:22:39;;;;;;;2.97;1.40;;;;;;;13.02;52.92;100268.34;5555045;32;34152;-57
2022/01/03 13:25:41;;;;;;;4.12;1.25;;;;;;;12.92;53.25;100272.03;5556605;32;33805;-57
2022/01/03 13:28:45;;;;;;;4.32;1.75;;;;;;;13.04;53.35;100271.53;5560143;32;34264;-58
2022/01/03 13:31:48;;;;;;;4.60;1.58;;;;;;;13.08;53.93;100264.47;5559997;32;34460;-58
2022/01/03 13:34:51;;;;;;;4.68;1.87;;;;;;;13.04;54.13;100287.66;5550108;32;33747;-57
2022/01/03 13:37:53;;;;;;;12.27;2.62;;;;;;;13.02;54.71;100286.41;5565056;32;33585;-58
2022/01/03 13:41:15;;;;;;;10.50;1.98;;;;;;;13.04;55.38;100276.91;5550892;32;33795;-57
2022/01/03 13:51:23;;;;;;;4.10;1.85;;;;;;;12.99;55.21;100292.38;5550200;32;34437;-57
2022/01/03 13:54:33;;;;;;;4.93;2.00;;;;;;;12.99;56.35;100277.00;5550715;32;33664;-58
2022/01/03 13:57:36;;;;;;;8.82;2.70;;;;;;;12.94;55.38;100279.78;5549698;32;33748;-58
2022/01/03 14:00:55;;;;;;;6.07;2.05;;;;;;;12.92;55.27;100282.00;5550540;32;34241;-58
2022/01/03 14:03:58;;;;;;;3.87;1.60;;;;;;;12.97;55.57;100270.34;5553271;32;33781;-57
2022/01/03 14:07:11;;;;;;;6.75;2.10;;;;;;;12.97;56.11;100287.25;5554421;32;34003;-58
2022/01/03 14:10:14;;;;;;;8.10;2.60;;;;;;;13.00;55.18;100286.69;5548695;32;33649;-57
2022/01/03 14:13:21;;;;;;;6.93;1.70;;;;;;;12.92;55.58;100292.75;5550702;32;34387;-58
2022/01/03 14:17:00;;;;;;;3.70;1.65;;;;;;;12.87;56.03;100309.78;5550217;32;33628;-58
2022/01/03 14:20:08;;;;;;;3.67;1.40;;;;;;;12.99;55.05;100301.22;5553643;32;33823;-58
2022/01/03 14:23:16;;;;;;;2.87;1.20;;;;;;;13.12;53.25;100299.66;5559332;32;34496;-58
2022/01/03 14:26:22;;;;;;;4.30;1.60;;;;;;;13.11;52.77;100295.34;5551072;32;33323;-57
2022/01/03 14:29:37;;;;;;;5.97;1.40;;;;;;;13.11;53.22;100316.88;5558401;32;33697;-55
2022/01/03 14:32:40;;;;;;;3.08;1.25;;;;;;;13.14;52.58;100311.72;5552330;32;34227;-56
2022/01/03 14:35:44;;;;;;;5.32;1.67;;;;;;;13.25;52.41;100315.03;5560141;32;33811;-56
2022/01/03 14:38:57;;;;;;;2.30;1.15;;;;;;;13.21;51.97;100319.41;5555900;32;34108;-58
2022/01/03 14:42:08;;;;;;;7.22;1.77;;;;;;;13.16;51.79;100330.25;5554553;32;33615;-58
2022/01/03 14:45:16;;;;;;;3.62;1.40;;;;;;;13.31;51.79;100331.87;5555717;32;33633;-58
2022/01/03 14:48:20;;;;;;;5.20;1.33;;;;;;;13.15;52.09;100336.75;5554057;32;33713;-58
2022/01/03 14:51:39;;;;;;;4.20;1.65;;;;;;;13.24;51.87;100345.72;5558930;32;33183;-56
2022/01/03 14:54:49;;;;;;;2.42;1.05;;;;;;;13.36;51.15;100351.41;5554934;32;33384;-56
2022/01/03 14:57:52;;;;;;;5.20;1.30;;;;;;;13.32;50.92;100350.44;5557347;32;33796;-57
2022/01/03 15:00:54;;;;;;;2.25;1.37;;;;;;;13.37;51.04;100338.75;5553640;32;34306;-56
2022/01/03 15:03:56;;;;;;;5.90;1.58;;;;;;;13.31;50.89;100331.87;5569248;32;33857;-56
2022/01/03 15:07:14;;;;;;;4.05;1.25;;;;;;;13.23;51.64;100338.72;5560650;32;33624;-58
2022/01/03 15:10:17;;;;;;;5.47;1.25;;;;;;;13.32;51.48;100342.34;5549749;32;34229;-58
2022/01/03 15:13:26;;;;;;;5.45;1.35;;;;;;;13.30;51.33;100343.75;5556707;32;34545;-56
2022/01/03 15:16:28;;;;;;;1.85;1.00;;;;;;;13.28;51.76;100335.97;5569046;32;33283;-57
2022/01/03 15:19:31;;;;;;;3.85;1.30;;;;;;;13.19;51.67;100348.50;5558493;32;34467;-56
2022/01/03 15:22:33;;;;;;;3.70;1.25;;;;;;;13.13;51.97;100357.75;5558539;32;33189;-56
2022/01/03 15:25:36;;;;;;;4.55;1.30;;;;;;;13.22;56.21;100355.97;5564125;32;33746;-56
2022/01/03 15:28:38;;;;;;;2.95;1.30;;;;;;;13.33;51.69;100360.09;5549436;32;33777;-56
2022/01/03 15:31:41;;;;;;;5.05;1.50;;;;;;;13.32;52.38;100352.31;5550245;32;33741;-56
2022/01/03 15:34:44;;;;;;;3.95;1.50;;;;;;;13.25;52.36;100358.09;5554063;32;34079;-56
2022/01/03 15:37:46;;;;;;;5.35;1.70;;;;;;;13.21;54.62;100358.94;5565686;32;33772;-56
2022/01/03 15:40:50;;;;;;;3.92;1.90;;;;;;;13.17;53.52;100343.41;5549333;32;33809;-56
2022/01/03 15:43:58;;;;;;;5.45;1.85;;;;;;;13.15;53.19;100344.81;5562201;32;34432;-56
2022/01/03 15:47:00;;;;;;;5.97;2.15;;;;;;;13.06;53.27;100349.28;5551870;32;34221;-56
2022/01/03 15:50:05;;;;;;;5.97;2.65;;;;;;;13.03;53.56;100347.19;5559221;32;33749;-56
2022/01/03 15:53:09;;;;;;;5.95;2.72;;;;;;;12.94;54.96;100341.69;5553673;32;33709;-56
2022/01/03 15:56:11;;;;;;;4.15;2.33;;;;;;;12.80;54.61;100335.47;5558709;32;32671;-56
2022/01/03 15:59:15;;;;;;;5.45;2.17;;;;;;;12.61;55.41;100344.38;5561969;32;34250;-56
2022/01/03 16:02:20;;;;;;;6.37;2.37;;;;;;;12.60;55.34;100344.69;5558951;32;34384;-56
2022/01/03 16:05:23;;;;;;;4.28;2.08;;;;;;;12.52;56.61;100356.94;5554437;32;34378;-56
2022/01/03 16:08:25;;;;;;;6.65;2.60;;;;;;;12.42;56.70;100351.72;5558344;32;34298;-56
2022/01/03 16:11:28;;;;;;;5.57;2.20;;;;;;;12.42;56.62;100347.12;5554771;32;34389;-56
2022/01/03 16:14:36;;;;;;;4.32;1.75;;;;;;;12.41;56.86;100329.38;5556668;32;34270;-56
2022/01/03 16:17:38;;;;;;;5.22;2.25;;;;;;;12.41;56.50;100332.06;5559266;32;34322;-56
2022/01/03 16:20:41;;;;;;;3.95;1.80;;;;;;;12.44;58.93;100336.06;5556387;32;33327;-56
2022/01/03 16:23:43;;;;;;;6.10;2.00;;;;;;;12.41;56.78;100345.50;5554201;32;34301;-56
2022/01/03 16:26:48;;;;;;;4.12;1.90;;;;;;;12.31;57.17;100334.91;5552709;32;33815;-56
2022/01/03 16:29:50;;;;;;;4.65;1.70;;;;;;;12.37;56.84;100343.72;5552751;32;33653;-56
2022/01/03 16:32:52;;;;;;;5.18;1.98;;;;;;;12.29;57.17;100342.50;5560374;32;33675;-56
2022/01/03 16:35:55;;;;;;;5.80;1.95;;;;;;;12.33;57.44;100348.09;5558843;32;33721;-56
2022/01/03 16:38:57;;;;;;;4.72;1.87;;;;;;;12.31;57.04;100345.66;5568223;32;34343;-56
2022/01/03 16:42:01;;;;;;;4.35;1.85;;;;;;;12.28;57.35;100348.16;5561590;32;33652;-56
2022/01/03 16:45:03;;;;;;;4.97;1.50;;;;;;;12.32;57.19;100343.81;5554508;32;33615;-56
2022/01/03 16:48:06;;;;;;;3.08;1.40;;;;;;;12.51;56.73;100347.25;5565828;32;33299;-56
2022/01/03 16:51:09;;;;;;;6.18;1.92;;;;;;;12.44;56.51;100354.88;5560868;32;33943;-56
2022/01/03 16:54:11;;;;;;;11.32;1.92;;;;;;;12.36;56.76;100345.59;5553587;32;34347;-56
